Hayesville, Ohio
Current Conditions -  °F | °C
As of 9:52 AM on Tuesday 21 Oct 2014 (Local Time) from KMFD Reporting Station
Overcast Overcast  
Wind Chill: 42°   Ceiling: 500
Heat Index: 47°   Visibility: 7mi
Dew Point: 46°   Wind: 10mph
Humidity: 97%   Direction: 320°NW
Pressure: 29.94"   Gusts: NA
Location:  40.77°N, 82.26°W
Report Text: KMFD 211352Z 32009KT 7SM OVC005 08/08 A2994 RMK AO2 SLP142 T00830078
Loading
Personal Weather Stations






























Interactive Weather Map
Tropical Storm Tracking
New forecast layout! Learn more

10-Day Weather Forecast

Advertisements
Track Severe Weather on mobile